Time;durP1;ratioP1;P1;durP2;ratioP2;P2;SDS_P1;SDS_P2;PMS_P1;PMS_P2;Temp;Humidity;BMP_temperature;BMP_pressure;BME280_temperature;BME280_humidity;BME280_pressure;Samples;Min_cycle;Max_cycle;Signal;HPM_P1;HPM_P2
2023/03/31 00:00:24;;;;;;;20.98;5.07;;;;;;;8.89;100.00;100244.09;5074050;28;20031;-79
2023/03/31 00:02:52;;;;;;;20.92;4.97;;;;;;;8.91;100.00;100233.56;5074103;28;20488;-79
2023/03/31 00:05:20;;;;;;;19.92;4.90;;;;;;;8.87;100.00;100231.81;5073982;28;20021;-75
2023/03/31 00:07:47;;;;;;;19.98;4.75;;;;;;;8.88;100.00;100223.00;5072621;28;20490;-77
2023/03/31 00:10:14;;;;;;;22.27;5.28;;;;;;;8.86;100.00;100208.97;5074078;28;20036;-78
2023/03/31 00:12:39;;;;;;;22.90;4.95;;;;;;;8.85;100.00;100207.19;5073851;28;20126;-72
2023/03/31 00:15:05;;;;;;;21.67;5.30;;;;;;;8.82;100.00;100202.78;5073752;28;20020;-79
2023/03/31 00:17:32;;;;;;;20.48;4.90;;;;;;;8.84;100.00;100190.50;5074047;28;20028;-78
2023/03/31 00:19:59;;;;;;;20.85;5.00;;;;;;;8.85;100.00;100191.38;5073693;28;20098;-77
2023/03/31 00:22:28;;;;;;;24.08;5.18;;;;;;;8.81;100.00;100182.59;5072291;28;20029;-74
2023/03/31 00:24:53;;;;;;;21.33;4.63;;;;;;;8.79;100.00;100176.44;5073810;28;20025;-76
2023/03/31 00:27:19;;;;;;;20.05;4.18;;;;;;;8.75;100.00;100174.66;5073289;28;20145;-78
2023/03/31 00:29:44;;;;;;;21.60;4.65;;;;;;;8.71;100.00;100170.31;5073553;28;20472;-79
2023/03/31 00:32:10;;;;;;;21.15;4.70;;;;;;;8.70;100.00;100165.91;5073688;28;20031;-75
2023/03/31 00:34:37;;;;;;;20.73;4.80;;;;;;;8.67;100.00;100158.84;5073281;28;20036;-72
2023/03/31 00:37:03;;;;;;;19.70;4.40;;;;;;;8.67;100.00;100161.50;5073373;28;20020;-72
2023/03/31 00:39:34;;;;;;;20.73;4.55;;;;;;;8.67;100.00;100153.59;5073642;28;20040;-72
2023/03/31 00:42:02;;;;;;;20.80;4.72;;;;;;;8.67;100.00;100147.44;5069247;28;20095;-72
2023/03/31 00:44:29;;;;;;;21.67;4.40;;;;;;;8.66;100.00;100141.28;5073428;28;20487;-72
2023/03/31 00:47:14;;;;;;;21.50;4.80;;;;;;;8.65;100.00;100136.00;5073252;28;20029;-72
2023/03/31 00:49:45;;;;;;;19.75;4.20;;;;;;;8.66;100.00;100133.38;5070624;28;20013;-71
2023/03/31 00:52:26;;;;;;;23.02;4.50;;;;;;;8.72;100.00;100136.03;5073130;28;20032;-72
2023/03/31 00:54:56;;;;;;;21.05;4.60;;;;;;;8.67;100.00;100129.88;5072964;28;20059;-72
2023/03/31 00:57:24;;;;;;;20.58;4.40;;;;;;;8.69;100.00;100130.78;5072999;28;20069;-72
2023/03/31 00:59:54;;;;;;;21.63;4.47;;;;;;;8.70;100.00;100121.97;5073074;28;20024;-72
2023/03/31 01:02:24;;;;;;;21.00;4.60;;;;;;;8.70;100.00;100124.59;5073132;28;20093;-72
2023/03/31 01:04:53;;;;;;;24.27;4.47;;;;;;;8.74;100.00;100117.59;5072779;28;20044;-72
2023/03/31 01:07:34;;;;;;;22.73;4.45;;;;;;;8.72;100.00;100116.69;5071999;28;20467;-72
2023/03/31 01:10:03;;;;;;;21.13;4.25;;;;;;;8.74;100.00;100114.97;5068589;28;20021;-73
2023/03/31 01:12:32;;;;;;;21.27;4.65;;;;;;;8.76;100.00;100107.06;5072919;28;20476;-77
2023/03/31 01:14:58;;;;;;;21.35;4.30;;;;;;;8.79;100.00;100097.38;5072658;28;20024;-75
2023/03/31 01:17:27;;;;;;;20.02;4.03;;;;;;;8.79;100.00;100104.41;5072667;28;20035;-79
2023/03/31 01:20:20;;;;;;;20.58;4.28;;;;;;;8.80;100.00;100093.88;5072853;28;20052;-79
2023/03/31 01:23:07;;;;;;;18.75;3.80;;;;;;;8.84;100.00;100090.34;5070937;28;20024;-80
2023/03/31 01:26:01;;;;;;;21.77;4.05;;;;;;;8.83;100.00;100093.00;5069170;28;20115;-73
2023/03/31 01:28:40;;;;;;;21.08;4.10;;;;;;;8.84;100.00;100071.91;5071974;28;20056;-75
2023/03/31 01:31:33;;;;;;;22.58;4.35;;;;;;;8.81;100.00;100073.66;5069205;28;20025;-79
2023/03/31 01:34:04;;;;;;;21.17;4.20;;;;;;;8.84;100.00;100060.47;5072436;28;20093;-73
2023/03/31 01:37:06;;;;;;;22.02;4.13;;;;;;;8.85;100.00;100052.59;5068529;28;20383;-74
2023/03/31 01:39:56;;;;;;;22.50;4.30;;;;;;;8.86;100.00;100066.63;5068539;28;20528;-80
2023/03/31 01:42:50;;;;;;;20.73;4.00;;;;;;;8.86;100.00;100051.69;5071529;28;20116;-73
2023/03/31 01:45:34;;;;;;;21.85;4.90;;;;;;;8.87;100.00;100042.03;5066191;28;20037;-77
2023/03/31 01:48:17;;;;;;;26.00;4.90;;;;;;;8.87;100.00;100034.13;5072423;28;20083;-75
2023/03/31 01:50:47;;;;;;;23.77;4.82;;;;;;;8.95;100.00;100034.97;5069961;28;20024;-73
2023/03/31 01:53:21;;;;;;;24.45;4.70;;;;;;;8.95;100.00;100023.56;5072466;28;20082;-76
2023/03/31 01:56:09;;;;;;;22.88;4.82;;;;;;;8.94;100.00;100019.16;5072593;28;20029;-78
2023/03/31 01:58:40;;;;;;;22.75;4.72;;;;;;;8.92;100.00;99994.59;5064403;28;20032;-77
2023/03/31 02:01:24;;;;;;;19.08;3.97;;;;;;;8.92;100.00;99992.81;5072490;28;20032;-73
2023/03/31 02:04:25;;;;;;;18.95;3.85;;;;;;;8.87;100.00;99984.91;5072381;28;20056;-72
2023/03/31 02:07:02;;;;;;;23.92;4.20;;;;;;;8.83;100.00;99979.66;5057323;28;20032;-73
2023/03/31 02:09:34;;;;;;;20.00;4.03;;;;;;;8.77;100.00;99972.66;5072668;28;20059;-73
2023/03/31 02:12:04;;;;;;;18.08;3.78;;;;;;;8.73;100.00;99961.22;5072523;28;20101;-73
2023/03/31 02:14:31;;;;;;;22.35;4.50;;;;;;;8.72;100.00;99954.22;5072815;28;20031;-73
2023/03/31 02:17:01;;;;;;;22.02;4.15;;;;;;;8.73;100.00;99945.41;5072111;28;20095;-74
2023/03/31 02:19:33;;;;;;;24.13;5.00;;;;;;;8.70;100.00;99944.56;5075330;28;20039;-74
2023/03/31 02:22:00;;;;;;;22.17;4.55;;;;;;;8.68;100.00;99930.53;5076213;28;20021;-75
2023/03/31 02:24:27;;;;;;;23.77;4.70;;;;;;;8.68;100.00;99918.22;5075894;28;20088;-73
2023/03/31 02:27:17;;;;;;;23.50;4.88;;;;;;;8.71;100.00;99912.94;5074695;28;20031;-74
2023/03/31 02:29:43;;;;;;;22.38;4.70;;;;;;;8.75;100.00;99903.25;5073812;28;20067;-74
2023/03/31 02:32:17;;;;;;;22.77;5.22;;;;;;;8.73;100.00;99894.47;5075796;28;20432;-73
2023/03/31 02:34:42;;;;;;;24.13;4.90;;;;;;;8.72;100.00;99892.72;5075726;28;20081;-74
2023/03/31 02:37:07;;;;;;;25.67;5.53;;;;;;;8.72;100.00;99883.06;5075767;28;20036;-75
2023/03/31 02:39:35;;;;;;;26.48;5.57;;;;;;;8.72;100.00;99877.81;5075753;28;20104;-74
2023/03/31 02:42:06;;;;;;;26.58;5.75;;;;;;;8.72;100.00;99854.09;5071628;28;20016;-74
2023/03/31 02:44:33;;;;;;;25.00;5.85;;;;;;;8.72;100.00;99843.53;5071559;28;20032;-74
2023/03/31 02:46:58;;;;;;;24.10;5.05;;;;;;;8.74;100.00;99846.19;5075686;28;20191;-73
2023/03/31 02:49:24;;;;;;;26.80;5.32;;;;;;;8.74;100.00;99848.81;5075477;28;20032;-74
2023/03/31 02:52:33;;;;;;;27.85;6.22;;;;;;;8.71;100.00;99839.16;5075649;28;20048;-74
2023/03/31 02:55:46;;;;;;;26.00;5.57;;;;;;;8.70;100.00;99824.22;5075002;28;20039;-74
2023/03/31 02:58:22;;;;;;;26.17;6.13;;;;;;;8.73;100.00;99815.44;5064737;28;20426;-73
2023/03/31 03:01:10;;;;;;;28.63;6.30;;;;;;;8.72;100.00;99809.28;5075460;28;20027;-75
2023/03/31 03:04:01;;;;;;;28.00;6.13;;;;;;;8.72;100.00;99806.66;5067751;28;20032;-75
2023/03/31 03:06:36;;;;;;;26.63;5.78;;;;;;;8.70;100.00;99787.31;5074627;28;20036;-74
2023/03/31 03:09:28;;;;;;;25.45;5.85;;;;;;;8.74;100.00;99793.47;5071290;28;20025;-75
2023/03/31 03:12:20;;;;;;;26.25;6.10;;;;;;;8.74;100.00;99796.09;5074292;28;20490;-73
2023/03/31 03:14:49;;;;;;;25.70;5.63;;;;;;;8.71;100.00;99799.63;5073060;28;20028;-74
2023/03/31 03:17:27;;;;;;;25.88;5.88;;;;;;;8.70;100.00;99791.72;5075166;28;20032;-74
2023/03/31 03:19:55;;;;;;;27.85;6.15;;;;;;;8.69;100.00;99780.31;5075228;28;20025;-76
2023/03/31 03:22:21;;;;;;;25.45;5.75;;;;;;;8.70;100.00;99782.06;5074848;28;20063;-76
2023/03/31 03:24:47;;;;;;;27.20;5.28;;;;;;;8.70;100.00;99770.66;5074810;28;20071;-76
2023/03/31 03:27:12;;;;;;;26.45;5.45;;;;;;;8.68;100.00;99770.66;5074864;28;20186;-76
2023/03/31 03:29:37;;;;;;;27.08;5.60;;;;;;;8.66;100.00;99782.09;5073853;28;20025;-77
2023/03/31 03:32:03;;;;;;;28.30;5.78;;;;;;;8.69;100.00;99771.53;5074899;28;20106;-76
2023/03/31 03:34:28;;;;;;;24.00;5.38;;;;;;;8.65;100.00;99769.78;5074637;28;20035;-77
2023/03/31 03:36:54;;;;;;;26.98;5.38;;;;;;;8.67;100.00;99768.03;5074670;28;20029;-78
2023/03/31 03:39:19;;;;;;;27.45;5.57;;;;;;;8.69;100.00;99759.25;5074906;28;20021;-77
2023/03/31 03:41:45;;;;;;;23.73;5.10;;;;;;;8.66;100.00;99751.34;5074588;28;20093;-77
2023/03/31 03:44:11;;;;;;;28.23;6.00;;;;;;;8.64;100.00;99739.94;5073254;28;20028;-78
2023/03/31 03:46:36;;;;;;;25.17;5.25;;;;;;;8.62;100.00;99728.56;5074551;28;20020;-77
2023/03/31 03:49:02;;;;;;;25.67;5.38;;;;;;;8.62;100.00;99725.03;5074441;28;20052;-80
2023/03/31 03:51:27;;;;;;;23.65;4.97;;;;;;;8.62;100.00;99711.84;5074317;28;20031;-78
2023/03/31 03:53:52;;;;;;;24.10;4.88;;;;;;;8.58;100.00;99705.72;5074502;28;20036;-80
2023/03/31 03:56:18;;;;;;;23.17;4.68;;;;;;;8.55;100.00;99701.34;5074249;28;20025;-78
2023/03/31 03:58:43;;;;;;;23.77;4.72;;;;;;;8.57;100.00;99703.13;5074421;28;20108;-78
2023/03/31 04:01:08;;;;;;;24.10;4.95;;;;;;;8.54;100.00;99696.09;5074317;28;20089;-77
2023/03/31 04:03:34;;;;;;;25.42;4.60;;;;;;;8.53;100.00;99683.78;5074231;28;20976;-77
2023/03/31 04:05:59;;;;;;;25.88;5.20;;;;;;;8.49;100.00;99687.31;5074024;28;20134;-77
2023/03/31 04:08:24;;;;;;;24.17;5.15;;;;;;;8.48;100.00;99675.94;5074260;28;20071;-78
2023/03/31 04:10:50;;;;;;;24.65;4.85;;;;;;;8.48;100.00;99664.53;5073880;28;20452;-77
2023/03/31 04:13:17;;;;;;;22.77;4.75;;;;;;;8.46;100.00;99661.91;5074098;28;20035;-78
2023/03/31 04:15:42;;;;;;;23.80;4.63;;;;;;;8.45;100.00;99654.00;5073862;28;20033;-75
2023/03/31 04:18:26;;;;;;;23.45;5.10;;;;;;;8.43;100.00;99646.09;5073744;28;20031;-78
2023/03/31 04:21:04;;;;;;;22.75;4.90;;;;;;;8.43;100.00;99637.28;5073678;28;20028;-78
2023/03/31 04:23:37;;;;;;;21.08;4.70;;;;;;;8.41;100.00;99625.91;5073931;28;20119;-78
2023/03/31 04:26:07;;;;;;;;;;;;;;;8.40;100.00;99632.06;5070366;28;20029;-78
2023/03/31 04:28:33;;;;;;;21.92;4.72;;;;;;;8.40;100.00;99618.88;5069437;28;19927;-78
2023/03/31 04:31:05;;;;;;;23.85;4.90;;;;;;;8.41;100.00;99616.25;5073525;28;20036;-78
2023/03/31 04:33:37;;;;;;;22.17;4.50;;;;;;;8.40;100.00;99616.25;5073369;28;20040;-78
2023/03/31 04:36:16;;;;;;;23.15;4.78;;;;;;;8.38;100.00;99603.97;5069866;28;20052;-78
2023/03/31 04:38:45;;;;;;;22.63;4.60;;;;;;;8.37;100.00;99598.69;5070731;28;20376;-78
2023/03/31 04:41:11;;;;;;;25.83;5.15;;;;;;;8.38;100.00;99596.06;5073443;28;20099;-78
2023/03/31 04:43:37;;;;;;;20.90;4.13;;;;;;;8.37;100.00;99583.78;5073083;28;20511;-76
2023/03/31 04:46:02;;;;;;;21.52;4.32;;;;;;;8.36;100.00;99574.13;5073361;28;20052;-77
2023/03/31 04:48:27;;;;;;;23.70;4.30;;;;;;;8.36;100.00;99568.88;5073088;28;20056;-77
2023/03/31 04:50:53;;;;;;;20.98;4.40;;;;;;;8.35;100.00;99559.22;5072011;28;20031;-78
2023/03/31 04:53:18;;;;;;;23.33;4.35;;;;;;;8.34;100.00;99557.50;5071949;28;20111;-78
2023/03/31 04:55:43;;;;;;;23.42;4.75;;;;;;;8.33;100.00;99550.47;5073078;28;20024;-78
2023/03/31 04:58:09;;;;;;;25.02;4.60;;;;;;;8.31;100.00;99551.34;5073144;28;20028;-77
2023/03/31 05:00:34;;;;;;;21.38;4.28;;;;;;;8.33;100.00;99552.19;5072977;28;20051;-78
2023/03/31 05:03:00;;;;;;;21.33;4.40;;;;;;;8.31;100.00;99546.94;5072794;28;20032;-78
2023/03/31 05:05:26;;;;;;;21.27;4.15;;;;;;;8.30;100.00;99554.88;5071836;28;20051;-77
2023/03/31 05:07:51;;;;;;;20.15;4.20;;;;;;;8.32;100.00;99550.47;5073168;28;20458;-78
2023/03/31 05:10:17;;;;;;;20.90;4.57;;;;;;;8.31;100.00;99539.06;5072833;28;20052;-76
2023/03/31 05:12:42;;;;;;;24.77;5.22;;;;;;;8.30;100.00;99529.44;5072996;28;20390;-75
2023/03/31 05:15:08;;;;;;;21.98;4.38;;;;;;;8.26;100.00;99519.78;5072901;28;20081;-77
2023/03/31 05:17:35;;;;;;;20.58;4.50;;;;;;;8.28;100.00;99511.88;5072954;28;20081;-78
2023/03/31 05:20:00;;;;;;;20.38;4.65;;;;;;;8.25;100.00;99510.13;5071606;28;20357;-78
2023/03/31 05:22:26;;;;;;;20.73;4.50;;;;;;;8.22;100.00;99496.16;5072663;28;20032;-78
2023/03/31 05:24:52;;;;;;;20.38;4.40;;;;;;;8.24;100.00;99507.53;5072560;28;20487;-78
2023/03/31 05:27:20;;;;;;;19.23;4.70;;;;;;;8.23;100.00;99496.13;5072758;28;20082;-79
2023/03/31 05:29:46;;;;;;;22.92;4.82;;;;;;;8.19;100.00;99492.63;5073249;28;20033;-80
2023/03/31 05:32:11;;;;;;;19.98;4.30;;;;;;;8.22;100.00;99481.22;5073212;28;20032;-79
2023/03/31 05:34:36;;;;;;;20.52;4.80;;;;;;;8.19;100.00;99483.88;5073101;28;20024;-79
2023/03/31 05:37:02;;;;;;;20.05;4.88;;;;;;;8.19;100.00;99486.50;5072966;28;20082;-79
2023/03/31 05:39:31;;;;;;;22.40;5.00;;;;;;;8.21;100.00;99476.81;5073150;28;20372;-79
2023/03/31 05:41:58;;;;;;;20.13;4.40;;;;;;;8.19;100.00;99483.88;5072930;28;20039;-84
2023/03/31 05:44:23;;;;;;;21.88;5.00;;;;;;;8.21;100.00;99484.72;5066756;28;20194;-75
2023/03/31 05:46:48;;;;;;;21.63;4.93;;;;;;;8.22;100.00;99478.56;5068408;28;20553;-80
2023/03/31 05:49:15;;;;;;;21.08;4.90;;;;;;;8.19;100.00;99481.22;5066853;28;20544;-80
2023/03/31 05:51:41;;;;;;;18.95;4.50;;;;;;;8.21;100.00;99468.91;5067513;28;20498;-85
2023/03/31 05:54:06;;;;;;;22.75;4.85;;;;;;;8.20;100.00;99475.09;5074869;28;20037;-90
2023/03/31 05:56:32;;;;;;;21.67;4.65;;;;;;;8.23;100.00;99458.38;5074438;28;20129;-84
2023/03/31 05:59:00;;;;;;;22.20;5.00;;;;;;;8.18;100.00;99467.22;5076053;28;20039;-84
2023/03/31 06:01:25;;;;;;;22.95;4.70;;;;;;;8.20;100.00;99459.28;5072878;28;20028;-83
2023/03/31 06:03:51;;;;;;;23.50;5.05;;;;;;;8.19;100.00;99457.53;5065475;28;20043;-78
2023/03/31 06:06:17;;;;;;;21.00;4.53;;;;;;;8.16;100.00;99463.69;5074149;28;20545;-79
2023/03/31 06:08:44;;;;;;;22.15;5.20;;;;;;;8.19;100.00;99457.53;5070567;28;20057;-83
2023/03/31 06:11:20;;;;;;;24.85;5.10;;;;;;;8.20;100.00;99446.13;5080575;28;20035;-84
2023/03/31 06:13:47;;;;;;;23.38;5.30;;;;;;;8.22;100.00;99432.97;5072621;28;20111;-85
2023/03/31 06:16:14;;;;;;;21.13;5.13;;;;;;;8.22;100.00;99432.97;5074784;28;20471;-79
2023/03/31 06:18:40;;;;;;;23.45;5.45;;;;;;;8.22;100.00;99420.66;5076917;28;20471;-79
2023/03/31 06:21:06;;;;;;;23.73;5.10;;;;;;;8.23;100.00;99421.53;5072593;28;20079;-82
2023/03/31 06:23:32;;;;;;;21.67;5.47;;;;;;;8.23;100.00;99417.16;5076344;28;20035;-88
2023/03/31 06:26:07;;;;;;;22.30;5.43;;;;;;;8.35;100.00;99411.75;5071591;28;20079;-88
2023/03/31 06:28:35;;;;;;;25.23;5.97;;;;;;;8.36;100.00;99410.00;5070183;28;20510;-84
2023/03/31 06:31:06;;;;;;;25.42;5.90;;;;;;;8.34;100.00;99399.50;5066502;28;20100;-83
2023/03/31 06:33:33;;;;;;;24.48;6.13;;;;;;;8.32;100.00;99424.94;5070229;28;20056;-80
2023/03/31 06:36:00;;;;;;;21.90;6.05;;;;;;;8.32;100.00;99437.25;5076695;28;20064;-86
2023/03/31 06:38:26;;;;;;;22.02;6.30;;;;;;;8.30;100.00;99429.38;5070448;28;20033;-84
2023/03/31 06:40:52;;;;;;;19.98;5.63;;;;;;;8.21;100.00;99413.63;5070489;28;20056;-81
2023/03/31 06:43:17;;;;;;;20.67;5.97;;;;;;;8.22;100.00;99402.22;5074600;28;20106;-80
2023/03/31 06:45:43;;;;;;;24.20;6.65;;;;;;;8.22;100.00;99404.00;5073887;28;20467;-73
2023/03/31 06:48:08;;;;;;;22.90;6.85;;;;;;;8.16;100.00;99410.19;5070414;28;20127;-79
2023/03/31 06:50:36;;;;;;;22.38;7.13;;;;;;;8.15;100.00;99418.97;5066754;28;20041;-80
2023/03/31 06:53:02;;;;;;;22.35;7.45;;;;;;;8.15;100.00;99414.56;5068499;28;20161;-84
2023/03/31 06:55:27;;;;;;;23.73;7.70;;;;;;;8.18;100.00;99413.66;5073063;28;20119;-81
2023/03/31 06:57:53;;;;;;;23.52;7.57;;;;;;;8.20;100.00;99404.03;5072432;28;20101;-77
2023/03/31 07:00:18;;;;;;;25.08;7.15;;;;;;;8.23;100.00;99411.88;5067983;28;20033;-76
2023/03/31 07:02:43;;;;;;;27.77;7.35;;;;;;;8.26;100.00;99392.56;5075003;28;20052;-79
2023/03/31 07:05:09;;;;;;;28.58;7.32;;;;;;;8.32;100.00;99406.53;5070606;28;20078;-76
2023/03/31 07:07:34;;;;;;;25.60;6.90;;;;;;;8.34;100.00;99425.84;5067941;28;20024;-77
2023/03/31 07:09:59;;;;;;;26.05;7.50;;;;;;;8.40;100.00;99416.13;5072158;28;20380;-83
2023/03/31 07:12:25;;;;;;;26.70;9.27;;;;;;;8.40;100.00;99422.25;5075017;28;20494;-75
2023/03/31 07:14:50;;;;;;;26.48;10.85;;;;;;;8.43;100.00;99395.00;5073748;28;20386;-77
2023/03/31 07:17:16;;;;;;;28.95;10.20;;;;;;;8.50;100.00;99388.81;5068638;28;20060;-75
2023/03/31 07:19:41;;;;;;;25.88;10.35;;;;;;;8.47;100.00;99383.59;5071601;28;20025;-76
2023/03/31 07:22:07;;;;;;;29.00;10.40;;;;;;;8.49;100.00;99384.44;5068941;28;20375;-78
2023/03/31 07:24:33;;;;;;;31.08;10.60;;;;;;;8.49;100.00;99384.44;5071217;28;20032;-81
2023/03/31 07:26:58;;;;;;;27.77;7.72;;;;;;;8.51;100.00;99375.63;5067089;28;20082;-78
2023/03/31 07:29:24;;;;;;;25.65;6.55;;;;;;;8.54;100.00;99369.47;5070736;28;20036;-77
2023/03/31 07:31:50;;;;;;;24.38;5.85;;;;;;;8.54;100.00;99380.88;5071746;28;20032;-77
2023/03/31 07:34:16;;;;;;;22.58;5.53;;;;;;;8.52;100.00;99376.53;5071337;28;20107;-77
2023/03/31 07:36:41;;;;;;;22.75;5.40;;;;;;;8.48;100.00;99337.94;5073770;28;20074;-81
2023/03/31 07:39:06;;;;;;;20.65;5.30;;;;;;;8.53;100.00;99370.34;5064683;28;20479;-80
2023/03/31 07:41:32;;;;;;;21.73;5.03;;;;;;;8.54;100.00;99372.97;5070968;28;20036;-78
2023/03/31 07:43:59;;;;;;;22.08;4.78;;;;;;;8.57;100.00;99393.16;5076766;28;20119;-76
2023/03/31 07:46:26;;;;;;;21.92;5.13;;;;;;;8.63;100.00;99372.00;5070210;28;20472;-80
2023/03/31 07:48:54;;;;;;;22.90;4.90;;;;;;;8.68;100.00;99367.56;5069413;28;20028;-78
2023/03/31 07:51:23;;;;;;;22.33;5.22;;;;;;;8.75;100.00;99359.59;5071602;28;20044;-76
2023/03/31 07:53:51;;;;;;;23.80;5.68;;;;;;;8.83;100.00;99368.28;5073059;28;20025;-79
2023/03/31 07:56:17;;;;;;;26.27;6.13;;;;;;;8.90;100.00;99357.63;5070317;28;20036;-81
2023/03/31 07:58:43;;;;;;;23.25;6.15;;;;;;;8.95;100.00;99354.06;5074736;28;20036;-79
2023/03/31 08:01:08;;;;;;;24.02;5.72;;;;;;;8.99;100.00;99350.50;5068890;28;20029;-78
2023/03/31 08:03:34;;;;;;;23.77;6.20;;;;;;;9.02;100.00;99356.59;5071176;28;20086;-78
2023/03/31 08:05:59;;;;;;;25.15;6.18;;;;;;;9.07;100.00;99357.44;5067376;28;20043;-78
2023/03/31 08:08:25;;;;;;;26.52;6.35;;;;;;;9.10;100.00;99342.44;5062688;28;20483;-83
2023/03/31 08:10:51;;;;;;;25.27;6.63;;;;;;;9.19;100.00;99351.13;5065075;28;20107;-77
2023/03/31 08:13:16;;;;;;;25.00;6.65;;;;;;;9.23;100.00;99339.63;5071420;28;20028;-75
2023/03/31 08:15:42;;;;;;;28.08;6.50;;;;;;;9.23;100.00;99338.75;5066759;28;20025;-74
2023/03/31 08:18:07;;;;;;;31.42;7.30;;;;;;;9.33;100.00;99336.84;5070616;28;20040;-75
2023/03/31 08:20:32;;;;;;;27.00;6.70;;;;;;;9.41;100.00;99341.13;5072279;28;20118;-75
2023/03/31 08:22:58;;;;;;;26.98;6.60;;;;;;;9.43;100.00;99336.69;5073084;28;20102;-75
2023/03/31 08:25:23;;;;;;;24.75;6.50;;;;;;;9.49;100.00;99337.50;5069897;28;20056;-75
2023/03/31 08:27:50;;;;;;;27.27;6.95;;;;;;;9.53;100.00;99334.78;5063141;28;20056;-76
2023/03/31 08:30:17;;;;;;;27.80;6.60;;;;;;;9.51;100.00;99333.97;5064823;28;20040;-74
2023/03/31 08:32:42;;;;;;;27.63;6.72;;;;;;;9.55;100.00;99335.66;5068162;28;20494;-74
2023/03/31 08:35:08;;;;;;;25.73;6.68;;;;;;;9.60;100.00;99332.94;5070944;28;20060;-75
2023/03/31 08:37:34;;;;;;;27.63;6.20;;;;;;;9.62;100.00;99331.13;5073854;28;20063;-75
2023/03/31 08:40:01;;;;;;;26.77;6.68;;;;;;;9.60;100.00;99331.16;5070435;28;20036;-74
2023/03/31 08:42:56;;;;;;;29.90;6.53;;;;;;;9.59;100.00;99341.75;5068688;28;20495;-75
2023/03/31 08:45:36;;;;;;;27.85;6.35;;;;;;;9.62;100.00;99340.84;5066162;28;20067;-77
2023/03/31 08:48:13;;;;;;;28.15;6.32;;;;;;;9.62;100.00;99336.41;5068452;28;20033;-77
2023/03/31 08:50:46;;;;;;;26.38;6.57;;;;;;;9.74;100.00;99336.22;5071325;28;20055;-77
2023/03/31 08:53:25;;;;;;;;;;;;;;;9.79;100.00;99338.78;5065108;28;20054;-76
2023/03/31 08:55:55;;;;;;;26.73;6.25;;;;;;;9.77;100.00;99324.72;5070573;28;19951;-73
2023/03/31 08:58:40;;;;;;;28.88;6.25;;;;;;;9.83;100.00;99342.25;5067809;28;20020;-74
2023/03/31 09:01:15;;;;;;;26.27;5.90;;;;;;;9.83;100.00;99340.50;5076301;28;20030;-77
2023/03/31 09:03:50;;;;;;;27.65;6.22;;;;;;;9.84;100.00;99325.50;5066870;28;20028;-77
2023/03/31 09:06:26;;;;;;;26.45;5.50;;;;;;;9.87;100.00;99314.91;5074218;28;20029;-77
2023/03/31 09:08:57;;;;;;;24.77;5.38;;;;;;;9.89;100.00;99331.59;5068561;28;20022;-77
2023/03/31 09:11:35;;;;;;;25.00;4.93;;;;;;;9.93;100.00;99314.78;5072851;28;20020;-77
2023/03/31 09:14:08;;;;;;;25.90;5.38;;;;;;;9.96;100.00;99314.75;5065065;28;20024;-77
2023/03/31 09:16:46;;;;;;;28.48;6.05;;;;;;;10.02;100.00;99309.38;5066844;28;20107;-77
2023/03/31 09:19:31;;;;;;;24.67;5.10;;;;;;;9.95;100.00;99313.88;5068573;28;20083;-77
2023/03/31 09:22:00;;;;;;;25.73;5.25;;;;;;;9.91;100.00;99303.41;5067549;28;20101;-77
2023/03/31 09:24:33;;;;;;;22.48;4.45;;;;;;;9.95;100.00;99305.94;5070550;28;20032;-76
2023/03/31 09:27:06;;;;;;;23.20;4.70;;;;;;;9.94;100.00;99282.22;5067490;28;20330;-75
2023/03/31 09:29:34;;;;;;;24.45;4.68;;;;;;;9.98;100.00;99290.97;5068023;28;20028;-75
2023/03/31 09:32:29;;;;;;;22.80;4.43;;;;;;;9.94;100.00;99280.44;5069021;28;20053;-77
2023/03/31 09:34:59;;;;;;;23.05;4.25;;;;;;;10.08;100.00;99271.44;5059876;28;20127;-75
2023/03/31 09:37:29;;;;;;;24.95;4.82;;;;;;;10.15;100.00;99277.44;5072398;28;20034;-77
2023/03/31 09:39:56;;;;;;;23.45;4.30;;;;;;;10.22;100.00;99274.69;5072561;28;20032;-77
2023/03/31 09:42:21;;;;;;;23.63;4.45;;;;;;;10.25;100.00;99279.91;5072614;28;20036;-77
2023/03/31 09:44:51;;;;;;;21.02;4.13;;;;;;;10.33;100.00;99276.25;5072370;28;20037;-78
2023/03/31 09:47:32;;;;;;;22.65;4.32;;;;;;;10.40;100.00;99269.97;5072414;28;20027;-77
2023/03/31 09:49:57;;;;;;;23.27;3.90;;;;;;;10.57;100.00;99265.22;5068461;28;20441;-75
2023/03/31 09:52:30;;;;;;;21.40;4.15;;;;;;;10.62;100.00;99265.13;5072510;28;20055;-77
2023/03/31 09:54:59;;;;;;;18.08;3.78;;;;;;;10.74;100.00;99261.34;5072522;28;20033;-76
2023/03/31 09:57:31;;;;;;;21.75;4.20;;;;;;;10.84;100.00;99259.38;5072298;28;20025;-77
2023/03/31 10:00:12;;;;;;;20.65;4.00;;;;;;;10.98;100.00;99254.66;5068189;28;20028;-75
2023/03/31 10:02:47;;;;;;;22.35;3.85;;;;;;;10.99;100.00;99264.31;5069659;28;20471;-75
2023/03/31 10:05:42;;;;;;;20.13;3.70;;;;;;;10.95;100.00;99257.34;5072332;28;20475;-75
2023/03/31 10:08:32;;;;;;;21.50;3.50;;;;;;;11.21;100.00;99243.50;5069607;28;20139;-74
2023/03/31 10:11:01;;;;;;;21.25;3.92;;;;;;;11.11;100.00;99244.63;5059406;28;20033;-76
2023/03/31 10:13:34;;;;;;;16.58;3.35;;;;;;;10.97;100.00;99247.63;5072414;28;20107;-74
2023/03/31 10:16:07;;;;;;;18.40;3.50;;;;;;;10.95;100.00;99249.41;5068539;28;20024;-75
2023/03/31 10:18:38;;;;;;;20.60;3.70;;;;;;;10.84;100.00;99246.16;5068822;28;20025;-75
2023/03/31 10:21:06;;;;;;;19.15;3.40;;;;;;;10.89;100.00;99255.72;5071985;28;20155;-75
2023/03/31 10:23:34;;;;;;;20.27;3.60;;;;;;;11.06;100.00;99247.41;5063219;28;20028;-75
2023/03/31 10:26:02;;;;;;;18.40;3.30;;;;;;;11.24;100.00;99245.22;5063719;28;20032;-85
2023/03/31 10:28:32;;;;;;;17.27;3.42;;;;;;;11.48;100.00;99243.78;5068369;28;20047;-82
2023/03/31 10:31:02;;;;;;;20.63;3.50;;;;;;;11.49;100.00;99221.72;5066715;28;20032;-82
2023/03/31 10:33:33;;;;;;;18.70;3.58;;;;;;;11.28;100.00;99231.03;5067157;28;20029;-81
2023/03/31 10:36:02;;;;;;;19.63;3.30;;;;;;;11.07;100.00;99238.56;5067493;28;20086;-80
2023/03/31 10:38:39;;;;;;;17.85;3.40;;;;;;;10.91;100.00;99222.19;5068244;28;20029;-85
2023/03/31 10:41:05;;;;;;;18.15;3.38;;;;;;;10.93;100.00;99208.94;5073265;28;20032;-84
2023/03/31 10:43:42;;;;;;;17.77;3.20;;;;;;;10.97;100.00;99210.59;5075616;28;20072;-84
2023/03/31 10:46:08;;;;;;;19.35;3.30;;;;;;;10.99;100.00;99211.41;5069455;28;20021;-87
2023/03/31 10:48:40;;;;;;;20.30;3.67;;;;;;;11.18;100.00;99246.25;5068867;28;20115;-78
2023/03/31 10:51:26;;;;;;;20.08;3.63;;;;;;;11.47;100.00;99218.22;5072296;28;20017;-81
2023/03/31 10:53:54;;;;;;;19.27;3.30;;;;;;;11.69;100.00;99226.47;5069886;28;20024;-81
2023/03/31 10:56:22;;;;;;;20.85;3.78;;;;;;;11.74;100.00;99199.91;5069046;28;20107;-78
2023/03/31 10:59:25;;;;;;;20.10;4.20;;;;;;;11.90;100.00;99206.50;5069154;28;20031;-80
2023/03/31 11:01:53;;;;;;;20.27;3.45;;;;;;;11.80;100.00;99199.72;5074520;28;20032;-79
2023/03/31 11:04:52;;;;;;;20.63;3.92;;;;;;;11.47;100.00;99205.84;5077453;28;20028;-78
2023/03/31 11:07:52;;;;;;;18.67;3.50;;;;;;;11.22;100.00;99189.72;5071330;28;20441;-78
2023/03/31 11:10:38;;;;;;;18.27;3.45;;;;;;;10.81;100.00;99202.16;5070695;28;20032;-77
2023/03/31 11:13:52;;;;;;;21.02;3.80;;;;;;;10.29;100.00;99198.81;5073511;28;20024;-76
2023/03/31 11:16:20;;;;;;;20.65;3.97;;;;;;;10.22;100.00;99215.69;5038670;28;20056;-77
2023/03/31 11:19:29;;;;;;;23.67;4.00;;;;;;;10.25;100.00;99202.41;5066058;28;20201;-78
2023/03/31 11:22:23;;;;;;;21.63;3.95;;;;;;;10.54;100.00;99195.69;5068478;28;20033;-79
2023/03/31 11:25:31;;;;;;;20.42;4.32;;;;;;;10.87;100.00;99185.28;5064764;28;20190;-75
2023/03/31 11:28:14;;;;;;;20.25;3.85;;;;;;;10.91;100.00;99190.47;5064962;28;20515;-77
2023/03/31 11:31:01;;;;;;;20.27;3.75;;;;;;;11.05;100.00;99174.25;5066769;28;20352;-73
2023/03/31 11:33:37;;;;;;;21.08;3.80;;;;;;;11.44;100.00;99147.72;5070016;28;20422;-82
2023/03/31 11:36:21;;;;;;;19.95;3.75;;;;;;;11.72;100.00;99156.69;5075560;28;20028;-75
2023/03/31 11:38:52;;;;;;;20.52;3.88;;;;;;;11.87;100.00;99169.53;5072617;28;20126;-77
2023/03/31 11:41:45;;;;;;;23.67;4.68;;;;;;;11.89;100.00;99145.66;5070083;28;20057;-75